createdAt,value
2019-02-19T00:01:04.051Z,3.87
2019-02-19T00:03:34.035Z,3.72
2019-02-19T00:06:04.072Z,3.88
2019-02-19T00:08:34.052Z,3.86
2019-02-19T00:11:04.072Z,3.94
2019-02-19T00:13:34.023Z,3.92
2019-02-19T00:16:03.988Z,3.95
2019-02-19T00:18:33.914Z,3.88
2019-02-19T00:21:03.871Z,3.78
2019-02-19T00:23:33.787Z,3.71
2019-02-19T00:26:13.165Z,3.81
2019-02-19T00:28:44.160Z,3.82
2019-02-19T00:31:15.146Z,3.73
2019-02-19T00:33:45.079Z,3.66
2019-02-19T00:36:15.108Z,3.58
2019-02-19T00:38:44.957Z,3.54
2019-02-19T00:41:14.851Z,3.43
2019-02-19T00:43:44.697Z,3.43
2019-02-19T00:46:14.596Z,3.41
2019-02-19T00:48:44.573Z,3.48
2019-02-19T00:51:14.625Z,3.52
2019-02-19T00:53:44.603Z,3.53
2019-02-19T00:56:14.558Z,3.59
2019-02-19T00:58:44.392Z,3.53
2019-02-19T01:01:14.373Z,3.56
2019-02-19T01:03:44.363Z,3.62
2019-02-19T01:06:14.441Z,3.53
2019-02-19T01:08:44.328Z,3.48
2019-02-19T01:11:14.306Z,3.39
2019-02-19T01:13:44.337Z,3.25
2019-02-19T01:16:14.314Z,3.36
2019-02-19T01:18:44.177Z,3.42
2019-02-19T01:21:14.001Z,3.51
2019-02-19T01:23:43.868Z,3.52
2019-02-19T01:26:13.771Z,3.67
2019-02-19T01:28:43.630Z,3.60
2019-02-19T01:31:13.527Z,3.66
2019-02-19T01:33:43.412Z,3.64
2019-02-19T01:36:13.322Z,3.57
2019-02-19T01:38:44.893Z,3.49
2019-02-19T01:41:14.789Z,3.46
2019-02-19T01:43:44.724Z,3.53
2019-02-19T01:46:14.660Z,3.71
2019-02-19T01:48:44.539Z,3.80
2019-02-19T01:51:14.492Z,3.88
2019-02-19T01:53:44.458Z,3.88
2019-02-19T01:56:14.399Z,3.86
2019-02-19T01:58:44.217Z,3.88
2019-02-19T02:01:14.087Z,4.00
2019-02-19T02:03:43.906Z,4.14
2019-02-19T02:06:13.916Z,4.19
2019-02-19T02:08:43.780Z,4.11
2019-02-19T02:11:13.743Z,4.10
2019-02-19T02:13:43.653Z,4.02
2019-02-19T02:16:13.518Z,4.14
2019-02-19T02:18:43.342Z,4.15
2019-02-19T02:21:13.261Z,4.10
2019-02-19T02:23:43.065Z,4.24
2019-02-19T02:26:13.070Z,4.34
2019-02-19T02:28:42.893Z,4.33
2019-02-19T02:31:12.870Z,4.26
2019-02-19T02:33:42.659Z,4.25
2019-02-19T02:36:12.534Z,4.17
2019-02-19T02:38:42.405Z,4.22
2019-02-19T02:41:12.323Z,4.34
2019-02-19T02:43:42.176Z,4.35
2019-02-19T02:46:12.004Z,4.29
2019-02-19T02:48:41.930Z,4.36
2019-02-19T02:51:11.737Z,4.32
2019-02-19T02:53:41.606Z,4.36
2019-02-19T02:56:11.464Z,4.26
2019-02-19T02:58:41.356Z,4.29
2019-02-19T03:01:11.154Z,4.15
2019-02-19T03:03:41.076Z,4.16
2019-02-19T03:06:30.152Z,4.13
2019-02-19T03:09:00.208Z,4.18
2019-02-19T03:11:30.100Z,4.18
2019-02-19T03:13:59.978Z,4.18
2019-02-19T03:16:29.812Z,4.12
2019-02-19T03:18:59.748Z,4.15
2019-02-19T03:21:29.614Z,4.15
2019-02-19T03:23:59.495Z,4.17
2019-02-19T03:26:29.448Z,4.38
2019-02-19T03:28:59.268Z,4.36
2019-02-19T03:31:29.257Z,4.36
2019-02-19T03:33:59.083Z,4.34
2019-02-19T03:36:29.052Z,4.15
2019-02-19T03:38:58.945Z,4.09
2019-02-19T03:41:28.985Z,4.19
2019-02-19T03:43:58.830Z,4.11
2019-02-19T03:46:30.408Z,4.05
2019-02-19T03:49:00.553Z,4.01
2019-02-19T03:51:30.532Z,4.01
2019-02-19T03:54:00.693Z,4.08
2019-02-19T03:56:30.734Z,4.17
2019-02-19T03:59:00.763Z,4.16
2019-02-19T04:01:30.725Z,4.14
2019-02-19T04:04:00.717Z,4.20
2019-02-19T04:06:32.402Z,4.03
2019-02-19T04:09:02.443Z,4.02
2019-02-19T04:11:32.456Z,4.06
2019-02-19T04:14:02.387Z,4.05
2019-02-19T04:16:32.301Z,4.13
2019-02-19T04:19:02.245Z,4.04
2019-02-19T04:21:32.095Z,3.98
2019-02-19T04:24:01.977Z,3.85
2019-02-19T04:26:31.912Z,3.96
2019-02-19T04:29:01.853Z,4.06
2019-02-19T04:31:31.911Z,4.05
2019-02-19T04:34:01.773Z,4.15
2019-02-19T04:36:31.748Z,4.11
2019-02-19T04:39:01.627Z,4.03
2019-02-19T04:41:32.742Z,3.86
2019-02-19T04:44:02.673Z,3.91
2019-02-19T04:46:32.515Z,3.94
2019-02-19T04:49:02.520Z,3.82
2019-02-19T04:51:32.502Z,3.93
2019-02-19T04:54:02.408Z,4.02
2019-02-19T04:56:32.277Z,3.92
2019-02-19T04:59:02.129Z,3.89
2019-02-19T05:01:32.158Z,4.00
2019-02-19T05:04:01.977Z,3.94
2019-02-19T05:06:31.834Z,3.94
2019-02-19T05:09:01.734Z,3.84
2019-02-19T05:11:33.282Z,3.72
2019-02-19T05:14:03.197Z,3.48
2019-02-19T05:16:40.502Z,3.41
2019-02-19T05:19:04.785Z,3.42
2019-02-19T05:21:34.776Z,3.30
2019-02-19T05:24:04.983Z,3.16
2019-02-19T05:26:34.998Z,2.99
2019-02-19T05:29:04.990Z,2.92
2019-02-19T05:31:34.875Z,2.89
2019-02-19T05:34:04.778Z,2.82
2019-02-19T05:36:34.715Z,2.65
2019-02-19T05:39:05.438Z,2.63
2019-02-19T05:41:35.304Z,2.61
2019-02-19T05:44:05.286Z,2.60
2019-02-19T05:46:35.168Z,2.65
2019-02-19T05:49:05.164Z,2.72
2019-02-19T05:51:35.033Z,2.86
2019-02-19T05:54:04.985Z,2.84
2019-02-19T05:56:34.994Z,2.95
2019-02-19T05:59:04.945Z,2.86
2019-02-19T06:01:34.781Z,2.75
2019-02-19T06:04:04.868Z,2.82
2019-02-19T06:06:34.688Z,2.69
2019-02-19T06:09:05.624Z,2.59
2019-02-19T06:11:35.531Z,2.56
2019-02-19T06:14:05.503Z,2.48
2019-02-19T06:16:35.348Z,2.39
2019-02-19T06:19:05.482Z,2.33
2019-02-19T06:21:35.386Z,2.35
2019-02-19T06:24:05.411Z,2.34
2019-02-19T06:26:35.233Z,2.35
2019-02-19T06:29:05.269Z,2.44
2019-02-19T06:31:35.152Z,2.55
2019-02-19T06:34:05.094Z,2.75
2019-02-19T06:36:35.035Z,2.92
2019-02-19T06:39:06.018Z,3.09
2019-02-19T06:41:36.010Z,3.34
2019-02-19T06:44:05.927Z,3.32
2019-02-19T06:46:35.965Z,3.29
2019-02-19T06:49:05.876Z,3.42
2019-02-19T06:51:35.815Z,3.44
2019-02-19T06:54:05.805Z,3.59
2019-02-19T06:56:35.736Z,3.70
2019-02-19T06:59:05.707Z,3.72
2019-02-19T07:01:54.574Z,4.07
2019-02-19T07:04:28.301Z,5.51
2019-02-19T07:06:58.179Z,6.66
2019-02-19T07:09:28.003Z,6.87
2019-02-19T07:11:58.897Z,7.01
2019-02-19T07:14:28.814Z,7.22
2019-02-19T07:16:58.830Z,7.38
2019-02-19T07:19:29.714Z,7.62
2019-02-19T07:21:59.617Z,7.59
2019-02-19T07:24:29.458Z,8.05
2019-02-19T07:26:59.418Z,7.82
2019-02-19T07:29:29.346Z,8.02
2019-02-19T07:31:59.239Z,8.23
2019-02-19T07:34:29.131Z,8.38
2019-02-19T07:36:58.968Z,8.57
2019-02-19T07:39:28.839Z,8.36
2019-02-19T07:41:58.689Z,8.70
2019-02-19T07:44:28.637Z,8.94
2019-02-19T07:46:58.452Z,8.55
2019-02-19T07:49:28.415Z,8.86
2019-02-19T07:51:58.251Z,8.80
2019-02-19T07:54:28.216Z,8.44
2019-02-19T07:56:58.111Z,8.26
2019-02-19T07:59:27.974Z,8.34
2019-02-19T08:01:59.196Z,7.84
2019-02-19T08:04:29.230Z,7.75
2019-02-19T08:06:59.274Z,7.52
2019-02-19T08:09:29.231Z,7.52
2019-02-19T08:11:59.095Z,7.55
2019-02-19T08:14:29.037Z,7.57
2019-02-19T08:16:58.963Z,7.61
2019-02-19T08:19:28.904Z,7.64
2019-02-19T08:21:58.744Z,7.76
2019-02-19T08:24:28.678Z,7.74
2019-02-19T08:26:58.519Z,7.84
2019-02-19T08:29:28.396Z,7.93
2019-02-19T08:31:58.311Z,7.95
2019-02-19T08:34:29.347Z,8.11
2019-02-19T08:36:59.329Z,8.21
2019-02-19T08:39:29.298Z,8.29
2019-02-19T08:41:59.161Z,8.41
2019-02-19T08:44:29.106Z,8.55
2019-02-19T08:46:59.007Z,8.61
2019-02-19T08:49:28.978Z,8.66
2019-02-19T08:51:58.879Z,8.81
2019-02-19T08:54:28.766Z,9.00
2019-02-19T08:56:58.640Z,9.11
2019-02-19T08:59:30.421Z,9.10
2019-02-19T09:02:00.329Z,9.17
2019-02-19T09:04:30.292Z,9.42
2019-02-19T09:07:00.209Z,9.47
2019-02-19T09:09:30.032Z,9.38
2019-02-19T09:11:59.953Z,9.30
2019-02-19T09:14:29.833Z,9.28
2019-02-19T09:16:59.721Z,9.38
2019-02-19T09:19:29.577Z,9.46
2019-02-19T09:21:59.454Z,9.57
2019-02-19T09:24:29.334Z,9.69
2019-02-19T09:26:59.349Z,9.72
2019-02-19T09:29:29.263Z,9.91
2019-02-19T09:31:59.249Z,10.03
2019-02-19T09:34:29.072Z,10.17
2019-02-19T09:36:58.954Z,10.21
2019-02-19T09:39:28.840Z,10.32
2019-02-19T09:41:58.915Z,10.22
2019-02-19T09:44:28.800Z,10.36
2019-02-19T09:46:58.685Z,10.51
2019-02-19T09:49:28.600Z,10.67
2019-02-19T09:51:58.570Z,10.87
2019-02-19T09:54:28.477Z,10.83
2019-02-19T09:56:58.581Z,10.52
2019-02-19T09:59:28.537Z,10.80
2019-02-19T10:01:58.413Z,11.08
2019-02-19T10:04:28.350Z,11.17
2019-02-19T10:06:58.263Z,11.31
2019-02-19T10:09:28.211Z,10.96
2019-02-19T10:11:58.136Z,11.12
2019-02-19T10:14:28.011Z,11.16
2019-02-19T10:16:57.844Z,11.28
2019-02-19T10:19:27.705Z,11.40
2019-02-19T10:21:57.539Z,11.39
2019-02-19T10:24:28.307Z,11.18
2019-02-19T10:26:58.131Z,11.25
2019-02-19T10:29:28.100Z,11.42
2019-02-19T10:31:58.010Z,11.39
2019-02-19T10:34:27.872Z,11.50
2019-02-19T10:36:57.711Z,11.26
2019-02-19T10:39:27.651Z,11.39
2019-02-19T10:41:57.463Z,11.38
2019-02-19T10:44:27.378Z,11.51
2019-02-19T10:46:57.210Z,11.82
2019-02-19T10:49:27.089Z,11.78
2019-02-19T10:51:56.932Z,11.79
2019-02-19T10:54:26.975Z,12.13
2019-02-19T10:56:56.943Z,12.04
2019-02-19T10:59:26.881Z,12.07
2019-02-19T11:01:56.842Z,11.95
2019-02-19T11:04:26.756Z,12.18
2019-02-19T11:06:56.718Z,12.35
2019-02-19T11:09:26.630Z,12.48
2019-02-19T11:11:58.059Z,12.15
2019-02-19T11:14:28.020Z,12.37
2019-02-19T11:16:57.979Z,12.56
2019-02-19T11:19:27.885Z,12.42
2019-02-19T11:21:57.911Z,12.50
2019-02-19T11:24:27.806Z,12.76
2019-02-19T11:26:57.758Z,12.78
2019-02-19T11:29:27.665Z,12.64
2019-02-19T11:31:57.625Z,13.08
2019-02-19T11:34:27.547Z,13.08
2019-02-19T11:36:57.500Z,12.92
2019-02-19T11:39:27.501Z,12.89
2019-02-19T11:41:57.515Z,13.07
2019-02-19T11:44:27.444Z,12.98
2019-02-19T11:46:57.390Z,12.71
2019-02-19T11:49:27.233Z,12.64
2019-02-19T11:51:57.064Z,12.62
2019-02-19T11:54:26.944Z,12.77
2019-02-19T11:56:56.896Z,12.52
2019-02-19T11:59:26.761Z,12.79
2019-02-19T12:01:56.671Z,12.65
2019-02-19T12:04:26.536Z,12.57
2019-02-19T12:06:56.380Z,12.44
2019-02-19T12:09:26.254Z,12.44
2019-02-19T12:11:56.163Z,12.61
2019-02-19T12:14:26.178Z,12.63
2019-02-19T12:16:56.016Z,12.83
2019-02-19T12:19:25.907Z,12.48
2019-02-19T12:21:55.882Z,12.50
2019-02-19T12:24:25.899Z,12.63
2019-02-19T12:26:55.922Z,12.92
2019-02-19T12:29:25.761Z,12.88
2019-02-19T12:31:55.691Z,12.68
2019-02-19T12:34:25.588Z,12.71
2019-02-19T12:36:55.536Z,12.60
2019-02-19T12:39:25.378Z,12.62
2019-02-19T12:41:55.315Z,12.47
2019-02-19T12:44:25.204Z,12.57
2019-02-19T12:46:55.074Z,12.82
2019-02-19T12:49:24.982Z,12.90
2019-02-19T12:51:55.588Z,12.69
2019-02-19T12:54:25.629Z,12.52
2019-02-19T12:56:55.547Z,12.70
2019-02-19T12:59:25.400Z,12.86
2019-02-19T13:01:55.317Z,13.06
2019-02-19T13:04:25.479Z,12.80
2019-02-19T13:06:55.429Z,12.74
2019-02-19T13:09:25.317Z,12.47
2019-02-19T13:11:55.336Z,12.52
2019-02-19T13:14:25.216Z,12.33
2019-02-19T13:16:55.120Z,12.19
2019-02-19T13:19:25.070Z,12.47
2019-02-19T13:21:54.911Z,12.29
2019-02-19T13:24:24.844Z,12.27
2019-02-19T13:26:54.662Z,12.45
2019-02-19T13:29:24.620Z,12.61
2019-02-19T13:31:54.447Z,12.73
2019-02-19T13:34:24.409Z,12.72
2019-02-19T13:36:54.256Z,12.71
2019-02-19T13:39:24.237Z,12.63
2019-02-19T13:41:54.154Z,12.59
2019-02-19T13:44:24.100Z,12.41
2019-02-19T13:46:54.017Z,12.63
2019-02-19T13:49:23.900Z,12.46
2019-02-19T13:51:55.700Z,12.36
2019-02-19T13:54:44.583Z,12.29
2019-02-19T13:57:14.558Z,12.94
2019-02-19T13:59:44.443Z,13.24
2019-02-19T14:02:14.348Z,13.58
2019-02-19T14:04:44.401Z,13.15
2019-02-19T14:07:14.384Z,13.12
2019-02-19T14:09:44.515Z,13.26
2019-02-19T14:12:14.446Z,13.26
2019-02-19T14:14:51.781Z,13.44
2019-02-19T14:17:22.999Z,13.32
2019-02-19T14:20:03.520Z,13.30
2019-02-19T14:22:51.285Z,13.21
2019-02-19T14:25:43.041Z,12.99
2019-02-19T14:28:31.954Z,12.77
2019-02-19T14:31:36.066Z,12.86
2019-02-19T14:34:27.107Z,13.21
2019-02-19T14:37:14.680Z,13.14
2019-02-19T14:39:58.062Z,12.83
2019-02-19T14:42:44.603Z,13.38
2019-02-19T14:45:21.544Z,13.49
2019-02-19T14:48:25.642Z,13.74
2019-02-19T14:51:09.425Z,13.69
2019-02-19T14:54:07.478Z,13.70
2019-02-19T14:56:45.077Z,13.27
2019-02-19T14:59:52.439Z,13.10
2019-02-19T15:02:31.913Z,12.87
2019-02-19T15:05:20.804Z,12.72
2019-02-19T15:08:09.422Z,12.80
2019-02-19T15:11:13.537Z,12.95
2019-02-19T15:14:02.500Z,13.13
2019-02-19T15:16:53.158Z,12.94
2019-02-19T15:19:48.237Z,12.68
2019-02-19T15:22:40.429Z,12.33
2019-02-19T15:25:28.112Z,12.27
2019-02-19T15:28:16.959Z,12.44
2019-02-19T15:34:12.788Z,12.35
2019-02-19T15:37:07.808Z,12.10
2019-02-19T15:40:11.838Z,12.07
2019-02-19T15:42:58.140Z,12.09
2019-02-19T15:45:53.183Z,12.07
2019-02-19T15:48:44.975Z,12.10
2019-02-19T15:51:32.343Z,11.92
2019-02-19T15:54:18.420Z,12.11
2019-02-19T15:57:13.794Z,12.03
2019-02-19T16:00:01.543Z,12.10
2019-02-19T16:02:47.150Z,12.08
2019-02-19T16:05:35.979Z,11.88
2019-02-19T16:08:19.992Z,11.63
2019-02-19T16:11:06.444Z,11.50
2019-02-19T16:13:58.594Z,11.49
2019-02-19T16:16:47.404Z,11.43
2019-02-19T16:19:25.601Z,11.37
2019-02-19T16:22:23.651Z,11.25
2019-02-19T16:25:01.671Z,11.15
2019-02-19T16:27:38.816Z,11.08
2019-02-19T16:30:37.841Z,10.99
2019-02-19T16:33:25.366Z,10.96
2019-02-19T16:36:23.443Z,10.84
2019-02-19T16:39:00.202Z,10.79
2019-02-19T16:41:49.151Z,10.72
2019-02-19T16:44:31.395Z,10.76
2019-02-19T16:47:26.157Z,10.68
2019-02-19T16:50:27.471Z,10.58
2019-02-19T16:53:14.992Z,10.44
2019-02-19T16:56:02.708Z,11.31
2019-02-19T16:58:43.116Z,11.42
2019-02-19T17:01:28.879Z,11.48
2019-02-19T17:04:05.266Z,11.55
2019-02-19T17:06:47.809Z,11.44
2019-02-19T17:09:26.389Z,11.47
2019-02-19T17:12:14.028Z,11.50
2019-02-19T17:15:15.093Z,11.46
2019-02-19T17:18:00.591Z,11.39
2019-02-19T17:20:39.884Z,11.32
2019-02-19T17:23:37.081Z,11.19
2019-02-19T17:26:31.855Z,11.23
2019-02-19T17:29:20.179Z,11.08
2019-02-19T17:32:09.062Z,11.06
2019-02-19T17:34:51.132Z,10.99
2019-02-19T17:37:29.071Z,11.00
2019-02-19T17:40:04.684Z,11.03
2019-02-19T17:42:40.792Z,11.01
2019-02-19T17:45:23.389Z,10.91
2019-02-19T17:48:00.707Z,10.97
2019-02-19T17:50:56.612Z,10.90
2019-02-19T17:53:51.312Z,10.97
2019-02-19T17:56:46.094Z,10.89
2019-02-19T17:59:37.895Z,10.76
2019-02-19T18:02:16.311Z,10.79
2019-02-19T18:04:59.205Z,10.64
2019-02-19T18:07:45.729Z,10.63
2019-02-19T18:10:34.670Z,10.60
2019-02-19T18:13:29.612Z,10.68
2019-02-19T18:16:26.976Z,10.70
2019-02-19T18:18:56.816Z,10.79
2019-02-19T18:21:26.862Z,10.81
2019-02-19T18:23:56.803Z,10.81
2019-02-19T18:26:26.702Z,10.66
2019-02-19T18:28:56.592Z,10.66
2019-02-19T18:31:26.578Z,10.69
2019-02-19T18:33:56.437Z,10.62
2019-02-19T18:36:26.357Z,10.59
2019-02-19T18:38:56.321Z,10.65
2019-02-19T18:41:26.348Z,10.62
2019-02-19T18:43:56.312Z,10.65
2019-02-19T18:46:26.144Z,10.63
2019-02-19T18:48:56.015Z,10.42
2019-02-19T18:51:26.012Z,10.43
2019-02-19T18:53:55.968Z,10.45
2019-02-19T18:56:25.863Z,10.34
2019-02-19T18:58:55.863Z,10.34
2019-02-19T19:01:25.931Z,10.31
2019-02-19T19:03:55.818Z,10.28
2019-02-19T19:06:25.656Z,10.37
2019-02-19T19:08:56.025Z,10.38
2019-02-19T19:11:26.029Z,10.40
2019-02-19T19:13:56.046Z,10.31
2019-02-19T19:16:25.954Z,10.35
2019-02-19T19:18:55.918Z,10.33
2019-02-19T19:21:26.822Z,10.33
2019-02-19T19:23:56.669Z,10.27
2019-02-19T19:26:26.512Z,10.24
2019-02-19T19:28:56.559Z,10.17
2019-02-19T19:31:33.207Z,10.20
2019-02-19T19:33:58.106Z,10.22
2019-02-19T19:36:28.019Z,10.20
2019-02-19T19:38:57.979Z,10.20
2019-02-19T19:41:27.829Z,10.19
2019-02-19T19:43:57.787Z,10.21
2019-02-19T19:46:27.686Z,10.17
2019-02-19T19:48:57.583Z,10.17
2019-02-19T19:51:27.501Z,10.00
2019-02-19T19:53:57.476Z,9.01
2019-02-19T19:56:27.498Z,8.70
2019-02-19T19:58:57.372Z,8.63
2019-02-19T20:01:27.417Z,8.57
2019-02-19T20:03:57.259Z,8.55
2019-02-19T20:06:27.213Z,8.57
2019-02-19T20:08:57.159Z,8.56
2019-02-19T20:11:27.117Z,8.50
2019-02-19T20:13:56.948Z,8.44
2019-02-19T20:16:26.889Z,8.39
2019-02-19T20:18:56.750Z,8.33
2019-02-19T20:21:27.239Z,8.24
2019-02-19T20:23:57.276Z,8.09
2019-02-19T20:26:27.298Z,8.02
2019-02-19T20:28:57.198Z,8.03
2019-02-19T20:31:27.075Z,8.05
2019-02-19T20:33:56.905Z,8.03
2019-02-19T20:36:26.918Z,7.96
2019-02-19T20:38:56.786Z,7.93
2019-02-19T20:41:26.916Z,7.94
2019-02-19T20:43:57.784Z,8.00
2019-02-19T20:46:27.667Z,7.87
2019-02-19T20:48:57.578Z,7.87
2019-02-19T20:51:36.077Z,7.94
2019-02-19T20:54:00.073Z,7.95
2019-02-19T20:56:30.076Z,7.90
2019-02-19T20:59:00.004Z,7.84
2019-02-19T21:01:30.043Z,7.74
2019-02-19T21:03:59.861Z,7.70
2019-02-19T21:06:29.803Z,7.56
2019-02-19T21:08:59.708Z,7.45
2019-02-19T21:11:29.652Z,7.39
2019-02-19T21:13:59.560Z,7.35
2019-02-19T21:16:29.434Z,7.29
2019-02-19T21:18:59.411Z,7.30
2019-02-19T21:24:04.985Z,7.28
2019-02-19T21:26:34.943Z,7.23
2019-02-19T21:29:04.951Z,7.17
2019-02-19T21:31:34.802Z,7.24
2019-02-19T21:34:04.706Z,7.28
2019-02-19T21:36:35.808Z,7.27
2019-02-19T21:39:06.695Z,7.22
2019-02-19T21:41:38.285Z,7.15
2019-02-19T21:44:08.143Z,7.16
2019-02-19T21:46:38.056Z,7.16
2019-02-19T21:49:07.980Z,7.15
2019-02-19T21:51:37.922Z,7.18
2019-02-19T21:54:07.971Z,7.25
2019-02-19T21:56:41.781Z,7.29
2019-02-19T21:59:12.143Z,7.26
2019-02-19T22:01:42.331Z,7.18
2019-02-19T22:04:12.297Z,7.16
2019-02-19T22:06:42.796Z,7.18
2019-02-19T22:09:12.774Z,7.14
2019-02-19T22:11:44.262Z,7.08
2019-02-19T22:14:15.157Z,6.95
2019-02-19T22:16:45.186Z,6.90
2019-02-19T22:19:15.046Z,6.90
2019-02-19T22:22:03.342Z,6.92
2019-02-19T22:24:37.676Z,6.90
2019-02-19T22:27:10.474Z,6.85
2019-02-19T22:29:40.465Z,6.85
2019-02-19T22:32:11.342Z,6.84
2019-02-19T22:34:41.251Z,6.82
2019-02-19T22:37:11.277Z,6.78
2019-02-19T22:39:41.135Z,6.76
2019-02-19T22:42:11.091Z,6.75
2019-02-19T22:44:41.048Z,6.77
2019-02-19T22:47:11.033Z,6.78
2019-02-19T22:49:41.202Z,6.82
2019-02-19T22:52:12.790Z,6.83
2019-02-19T22:54:54.373Z,6.81
2019-02-19T22:57:24.332Z,6.85
2019-02-19T22:59:54.204Z,6.87
2019-02-19T23:02:28.920Z,6.84
2019-02-19T23:04:58.955Z,6.82
2019-02-19T23:07:28.790Z,6.79
2019-02-19T23:09:59.822Z,6.78
2019-02-19T23:12:30.706Z,6.72
2019-02-19T23:15:00.612Z,6.73
2019-02-19T23:17:30.468Z,6.71
2019-02-19T23:20:00.436Z,6.70
2019-02-19T23:22:30.345Z,6.70
2019-02-19T23:25:00.290Z,6.75
2019-02-19T23:27:30.275Z,6.73
2019-02-19T23:30:00.338Z,6.74
2019-02-19T23:32:30.240Z,6.66
2019-02-19T23:35:32.251Z,6.67
2019-02-19T23:38:02.164Z,6.66
2019-02-19T23:40:32.043Z,6.68
2019-02-19T23:43:01.942Z,6.68
2019-02-19T23:45:31.972Z,6.61
2019-02-19T23:48:01.815Z,6.59
2019-02-19T23:50:31.700Z,6.60
2019-02-19T23:53:01.540Z,6.60
2019-02-19T23:55:31.492Z,6.63
2019-02-19T23:58:01.404Z,6.67
